createdAt,value
2017-10-26T00:02:27.476Z,36.60
2017-10-26T00:04:55.559Z,32.53
2017-10-26T00:07:23.863Z,42.23
2017-10-26T00:09:52.719Z,45.43
2017-10-26T00:12:20.804Z,39.03
2017-10-26T00:14:48.889Z,39.80
2017-10-26T00:17:16.970Z,49.97
2017-10-26T00:19:45.824Z,69.97
2017-10-26T00:22:13.895Z,61.27
2017-10-26T00:24:41.988Z,48.50
2017-10-26T00:27:10.063Z,46.63
2017-10-26T00:29:38.143Z,43.23
2017-10-26T00:32:06.245Z,35.73
2017-10-26T00:34:34.337Z,42.50
2017-10-26T00:37:02.425Z,37.30
2017-10-26T00:39:30.511Z,67.30
2017-10-26T00:41:58.596Z,74.53
2017-10-26T00:44:26.685Z,77.93
2017-10-26T00:46:55.540Z,62.70
2017-10-26T00:49:23.647Z,76.50
2017-10-26T00:51:52.504Z,69.50
2017-10-26T00:54:20.596Z,57.30
2017-10-26T00:56:48.681Z,74.77
2017-10-26T00:59:16.768Z,68.83
2017-10-26T01:01:45.616Z,74.33
2017-10-26T01:04:13.743Z,75.13
2017-10-26T01:06:41.816Z,69.10
2017-10-26T01:09:09.912Z,66.40
2017-10-26T01:11:38.760Z,95.90
2017-10-26T01:14:07.618Z,82.57
2017-10-26T01:16:35.705Z,126.57
2017-10-26T01:19:03.791Z,70.07
2017-10-26T01:21:32.640Z,126.43
2017-10-26T01:24:00.735Z,90.80
2017-10-26T01:26:28.823Z,123.83
2017-10-26T01:28:57.688Z,144.10
2017-10-26T01:31:25.777Z,106.37
2017-10-26T01:33:53.873Z,179.30
2017-10-26T01:36:22.732Z,234.17
2017-10-26T01:38:50.811Z,234.30
2017-10-26T01:41:18.892Z,186.87
2017-10-26T01:43:46.988Z,195.00
2017-10-26T01:46:15.835Z,109.87
2017-10-26T01:48:43.932Z,116.50
2017-10-26T01:51:12.016Z,189.67
2017-10-26T01:53:40.870Z,202.10
2017-10-26T01:56:08.960Z,181.10
2017-10-26T01:58:37.051Z,146.03
2017-10-26T02:01:05.131Z,198.47
2017-10-26T02:03:33.983Z,122.47
2017-10-26T02:06:02.068Z,236.17
2017-10-26T02:08:30.163Z,250.43
2017-10-26T02:10:59.017Z,238.67
2017-10-26T02:13:27.117Z,193.80
2017-10-26T02:15:55.207Z,187.00
2017-10-26T02:18:24.068Z,188.17
2017-10-26T02:20:52.148Z,110.43
2017-10-26T02:23:20.239Z,195.07
2017-10-26T02:25:49.088Z,174.37
2017-10-26T02:28:21.211Z,129.87
2017-10-26T02:33:57.465Z,138.97
2017-10-26T02:36:25.549Z,108.00
2017-10-26T02:38:54.404Z,144.37
2017-10-26T02:41:22.492Z,106.50
2017-10-26T02:43:50.581Z,110.00
2017-10-26T02:46:19.458Z,124.03
2017-10-26T02:48:48.362Z,118.97
2017-10-26T02:51:16.435Z,98.73
2017-10-26T02:53:45.298Z,102.80
2017-10-26T02:56:13.374Z,75.80
2017-10-26T02:58:41.474Z,101.03
2017-10-26T03:01:09.556Z,85.73
2017-10-26T03:03:38.404Z,64.57
2017-10-26T03:06:06.480Z,77.80
2017-10-26T03:08:34.576Z,85.53
2017-10-26T03:11:02.644Z,62.93
2017-10-26T03:13:30.866Z,74.90
2017-10-26T03:15:58.943Z,70.87
2017-10-26T03:18:27.987Z,62.27
2017-10-26T03:20:56.081Z,64.03
2017-10-26T03:23:24.191Z,55.57
2017-10-26T03:25:52.284Z,62.77
2017-10-26T03:28:20.456Z,56.67
2017-10-26T03:30:48.772Z,52.83
2017-10-26T03:33:17.622Z,57.63
2017-10-26T03:35:45.716Z,56.37
2017-10-26T03:38:13.799Z,54.20
2017-10-26T03:40:41.897Z,60.63
2017-10-26T03:43:10.756Z,63.90
2017-10-26T03:45:38.856Z,52.00
2017-10-26T03:48:07.702Z,48.97
2017-10-26T03:50:36.617Z,42.43
2017-10-26T03:53:04.693Z,54.53
2017-10-26T03:55:32.783Z,50.43
2017-10-26T03:58:01.631Z,49.17
2017-10-26T04:00:29.746Z,41.27
2017-10-26T04:02:58.592Z,40.00
2017-10-26T04:05:26.698Z,37.77
2017-10-26T04:07:54.776Z,37.53
2017-10-26T04:10:23.636Z,37.87
2017-10-26T04:12:51.735Z,46.77
2017-10-26T04:15:19.830Z,40.77
2017-10-26T04:17:47.900Z,43.57
2017-10-26T04:20:16.002Z,42.83
2017-10-26T04:22:44.084Z,43.87
2017-10-26T04:25:12.185Z,40.40
2017-10-26T04:27:40.268Z,48.73
2017-10-26T04:30:08.351Z,44.43
2017-10-26T04:32:37.204Z,51.47
2017-10-26T04:35:05.743Z,44.00
2017-10-26T04:37:33.836Z,51.90
2017-10-26T04:40:01.925Z,52.70
2017-10-26T04:42:30.017Z,50.43
2017-10-26T04:44:58.135Z,46.37
2017-10-26T04:47:26.244Z,45.73
2017-10-26T04:49:54.347Z,43.90
2017-10-26T04:52:22.431Z,55.50
2017-10-26T04:54:51.302Z,47.80
2017-10-26T04:57:19.375Z,58.67
2017-10-26T04:59:47.467Z,60.47
2017-10-26T05:02:16.371Z,68.33
2017-10-26T05:04:45.234Z,55.40
2017-10-26T05:07:13.316Z,52.67
2017-10-26T05:09:41.408Z,57.30
2017-10-26T05:12:10.271Z,56.90
2017-10-26T05:14:38.357Z,51.03
2017-10-26T05:17:07.221Z,50.27
2017-10-26T05:19:35.332Z,46.77
2017-10-26T05:22:04.191Z,51.30
2017-10-26T05:24:32.280Z,49.23
2017-10-26T05:27:00.356Z,45.23
2017-10-26T05:29:28.439Z,49.60
2017-10-26T05:31:57.316Z,49.50
2017-10-26T05:34:25.410Z,56.43
2017-10-26T05:36:54.268Z,57.97
2017-10-26T05:39:22.369Z,50.83
2017-10-26T05:41:51.221Z,58.50
2017-10-26T05:44:19.315Z,60.40
2017-10-26T05:46:47.394Z,67.20
2017-10-26T05:49:15.466Z,75.73
2017-10-26T05:51:44.323Z,55.77
2017-10-26T05:54:12.412Z,70.60
2017-10-26T05:56:40.507Z,69.13
2017-10-26T05:59:09.366Z,60.27
2017-10-26T06:01:37.468Z,57.23
2017-10-26T06:04:06.329Z,59.30
2017-10-26T06:06:34.426Z,57.03
2017-10-26T06:09:03.281Z,52.00
2017-10-26T06:11:31.380Z,59.13
2017-10-26T06:13:59.460Z,57.47
2017-10-26T06:16:27.547Z,55.87
2017-10-26T06:18:56.400Z,56.83
2017-10-26T06:21:24.489Z,62.13
2017-10-26T06:23:52.571Z,56.70
2017-10-26T06:26:20.657Z,48.20
2017-10-26T06:28:49.531Z,48.03
2017-10-26T06:31:17.620Z,49.37
2017-10-26T06:33:46.469Z,48.33
2017-10-26T06:36:14.560Z,45.83
2017-10-26T06:38:42.653Z,45.37
2017-10-26T06:41:11.515Z,46.30
2017-10-26T06:43:39.606Z,48.10
2017-10-26T06:46:08.476Z,47.27
2017-10-26T06:48:36.572Z,51.17
2017-10-26T06:51:04.656Z,44.93
2017-10-26T06:53:34.417Z,46.17
2017-10-26T06:56:02.519Z,50.87
2017-10-26T06:58:30.612Z,47.00
2017-10-26T07:00:59.477Z,42.67
2017-10-26T07:03:27.563Z,40.97
2017-10-26T07:05:55.656Z,42.27
2017-10-26T07:08:24.598Z,37.57
2017-10-26T07:10:52.674Z,39.47
2017-10-26T07:13:20.754Z,35.60
2017-10-26T07:15:48.849Z,48.10
2017-10-26T07:18:16.936Z,36.10
2017-10-26T07:20:45.789Z,41.57
2017-10-26T07:23:13.889Z,40.03
2017-10-26T07:25:42.963Z,42.70
2017-10-26T07:28:11.052Z,37.83
2017-10-26T07:30:39.178Z,36.53
2017-10-26T07:33:08.041Z,39.10
2017-10-26T07:35:36.902Z,32.97
2017-10-26T07:38:04.996Z,32.87
2017-10-26T07:40:33.847Z,35.87
2017-10-26T07:43:01.937Z,35.60
2017-10-26T07:45:30.030Z,39.60
2017-10-26T07:47:58.901Z,36.90
2017-10-26T07:50:26.981Z,28.90
2017-10-26T07:52:55.090Z,38.90
2017-10-26T07:55:23.184Z,31.97
2017-10-26T07:57:52.030Z,35.17
2017-10-26T08:00:20.895Z,31.67
2017-10-26T08:02:48.984Z,30.60
2017-10-26T08:05:17.068Z,32.63
2017-10-26T08:07:45.936Z,31.50
2017-10-26T08:10:14.029Z,29.27
2017-10-26T08:12:42.894Z,31.63
2017-10-26T08:15:10.981Z,27.17
2017-10-26T08:17:39.071Z,29.40
2017-10-26T08:20:07.921Z,28.60
2017-10-26T08:22:36.010Z,29.10
2017-10-26T08:25:04.118Z,34.30
2017-10-26T08:27:32.988Z,28.67
2017-10-26T08:30:01.080Z,33.70
2017-10-26T08:32:29.957Z,29.07
2017-10-26T08:34:58.816Z,28.67
2017-10-26T08:37:26.908Z,29.87
2017-10-26T08:39:55.009Z,33.00
2017-10-26T08:42:23.866Z,30.87
2017-10-26T08:44:51.951Z,31.17
2017-10-26T08:47:20.052Z,39.53
2017-10-26T08:49:48.149Z,26.67
2017-10-26T08:52:16.239Z,35.57
2017-10-26T08:54:44.327Z,30.57
2017-10-26T08:57:12.468Z,28.93
2017-10-26T08:59:40.551Z,31.23
2017-10-26T09:02:09.411Z,62.63
2017-10-26T09:04:37.511Z,34.47
2017-10-26T09:07:05.618Z,34.97
2017-10-26T09:09:33.705Z,35.03
2017-10-26T09:12:02.581Z,34.20
2017-10-26T09:14:30.668Z,41.10
2017-10-26T09:16:59.529Z,36.60
2017-10-26T09:19:27.616Z,33.83
2017-10-26T09:21:55.716Z,31.33
2017-10-26T09:24:24.560Z,33.77
2017-10-26T09:26:52.661Z,36.13
2017-10-26T09:29:20.743Z,36.03
2017-10-26T09:31:49.624Z,33.63
2017-10-26T09:34:17.700Z,33.80
2017-10-26T09:36:45.796Z,29.63
2017-10-26T09:39:13.912Z,35.37
2017-10-26T09:41:41.997Z,31.57
2017-10-26T09:44:10.088Z,32.57
2017-10-26T09:46:38.180Z,37.03
2017-10-26T09:49:07.034Z,34.17
2017-10-26T09:51:35.129Z,35.43
2017-10-26T09:54:03.277Z,37.83
2017-10-26T09:56:32.173Z,35.43
2017-10-26T09:59:00.292Z,36.70
2017-10-26T10:01:28.372Z,31.53
2017-10-26T10:03:56.471Z,38.40
2017-10-26T10:06:24.563Z,28.03
2017-10-26T10:08:52.653Z,27.27
2017-10-26T10:11:20.736Z,33.77
2017-10-26T10:13:48.824Z,31.00
2017-10-26T10:16:17.675Z,33.63
2017-10-26T10:18:45.768Z,31.83
2017-10-26T10:21:14.648Z,29.90
2017-10-26T10:23:42.743Z,26.67
2017-10-26T10:26:11.608Z,29.70
2017-10-26T10:28:39.736Z,35.83
2017-10-26T10:31:07.825Z,33.03
2017-10-26T10:33:35.943Z,28.00
2017-10-26T10:36:04.040Z,32.10
2017-10-26T10:38:32.888Z,32.90
2017-10-26T10:41:00.988Z,27.67
2017-10-26T10:43:29.869Z,34.77
2017-10-26T10:45:57.952Z,34.37
2017-10-26T10:48:26.815Z,31.43
2017-10-26T10:50:54.897Z,33.30
2017-10-26T10:53:22.980Z,34.37
2017-10-26T10:55:51.068Z,31.87
2017-10-26T10:58:19.921Z,31.30
2017-10-26T11:00:48.008Z,32.33
2017-10-26T11:03:16.092Z,33.23
2017-10-26T11:05:44.176Z,40.53
2017-10-26T11:08:13.044Z,35.30
2017-10-26T11:10:41.129Z,36.53
2017-10-26T11:13:09.217Z,39.50
2017-10-26T11:15:38.073Z,41.77
2017-10-26T11:18:06.173Z,36.63
2017-10-26T11:20:35.029Z,39.50
2017-10-26T11:23:03.119Z,34.37
2017-10-26T11:25:31.210Z,34.00
2017-10-26T11:28:00.078Z,39.50
2017-10-26T11:30:28.143Z,36.40
2017-10-26T11:32:56.254Z,35.23
2017-10-26T11:35:25.111Z,30.37
2017-10-26T11:37:53.213Z,27.50
2017-10-26T11:40:22.064Z,39.93
2017-10-26T11:42:50.160Z,34.47
2017-10-26T11:45:19.028Z,32.57
2017-10-26T11:47:47.115Z,30.57
2017-10-26T11:50:15.199Z,31.00
2017-10-26T11:52:44.065Z,29.73
2017-10-26T11:55:12.147Z,31.50
2017-10-26T11:57:40.244Z,34.90
2017-10-26T12:00:09.102Z,37.17
2017-10-26T12:02:37.196Z,37.63
2017-10-26T12:05:05.277Z,37.87
2017-10-26T12:07:34.153Z,35.83
2017-10-26T12:10:02.224Z,32.80
2017-10-26T12:12:30.330Z,34.93
2017-10-26T12:14:59.213Z,34.10
2017-10-26T12:17:28.083Z,37.13
2017-10-26T12:19:56.161Z,32.47
2017-10-26T12:22:24.248Z,35.83
2017-10-26T12:24:53.107Z,37.43
2017-10-26T12:27:21.202Z,36.17
2017-10-26T12:29:49.287Z,36.77
2017-10-26T12:32:18.172Z,32.40
2017-10-26T12:34:47.041Z,42.57
2017-10-26T12:37:15.137Z,44.50
2017-10-26T12:39:43.219Z,42.70
2017-10-26T12:42:12.059Z,47.50
2017-10-26T12:44:40.161Z,37.40
2017-10-26T12:47:08.259Z,39.43
2017-10-26T12:49:37.122Z,40.90
2017-10-26T12:52:05.226Z,38.00
2017-10-26T12:54:34.083Z,48.57
2017-10-26T12:57:02.171Z,40.53
2017-10-26T12:59:31.066Z,37.20
2017-10-26T13:01:59.960Z,39.13
2017-10-26T13:04:28.816Z,34.83
2017-10-26T13:06:56.909Z,32.50
2017-10-26T13:09:25.032Z,34.43
2017-10-26T13:11:53.113Z,30.60
2017-10-26T13:14:21.208Z,33.03
2017-10-26T13:16:49.292Z,36.27
2017-10-26T13:19:17.380Z,33.50
2017-10-26T13:21:45.468Z,34.30
2017-10-26T13:24:14.363Z,30.87
2017-10-26T13:26:43.207Z,46.87
2017-10-26T13:29:11.300Z,33.30
2017-10-26T13:31:39.396Z,31.53
2017-10-26T13:34:08.265Z,30.20
2017-10-26T13:36:36.340Z,34.33
2017-10-26T13:39:04.441Z,27.43
2017-10-26T13:41:32.525Z,31.20
2017-10-26T13:44:00.631Z,35.73
2017-10-26T13:46:28.719Z,36.13
2017-10-26T13:48:56.828Z,31.50
2017-10-26T13:51:25.679Z,35.63
2017-10-26T13:53:53.780Z,31.47
2017-10-26T13:56:22.625Z,35.00
2017-10-26T13:58:50.741Z,35.20
2017-10-26T14:01:19.606Z,33.10
2017-10-26T14:03:47.695Z,33.40
2017-10-26T14:06:15.791Z,32.30
2017-10-26T14:08:43.900Z,38.03
2017-10-26T14:11:12.004Z,32.47
2017-10-26T14:13:40.088Z,35.67
2017-10-26T14:16:08.184Z,36.80
2017-10-26T14:18:37.028Z,38.57
2017-10-26T14:21:05.119Z,41.20
2017-10-26T14:23:33.204Z,36.63
2017-10-26T14:26:02.079Z,42.57
2017-10-26T14:28:30.171Z,40.77
2017-10-26T14:30:59.025Z,33.40
2017-10-26T14:33:27.120Z,33.47
2017-10-26T14:35:55.205Z,33.37
2017-10-26T14:38:24.082Z,38.77
2017-10-26T14:40:52.177Z,36.30
2017-10-26T14:43:21.041Z,35.00
2017-10-26T14:45:49.120Z,34.10
2017-10-26T14:48:17.213Z,32.63
2017-10-26T14:50:46.072Z,36.60
2017-10-26T14:53:14.164Z,38.07
2017-10-26T14:55:43.029Z,31.53
2017-10-26T14:58:11.124Z,35.30
2017-10-26T15:00:39.207Z,35.33
2017-10-26T15:03:08.067Z,35.37
2017-10-26T15:05:36.164Z,39.00
2017-10-26T15:08:04.258Z,37.00
2017-10-26T15:10:32.372Z,31.97
2017-10-26T15:13:00.483Z,33.77
2017-10-26T15:15:28.576Z,34.53
2017-10-26T15:17:57.419Z,32.63
2017-10-26T15:20:25.504Z,35.80
2017-10-26T15:22:53.598Z,33.43
2017-10-26T15:25:22.468Z,36.57
2017-10-26T15:27:50.555Z,35.87
2017-10-26T15:30:18.632Z,35.67
2017-10-26T15:32:46.708Z,35.10
2017-10-26T15:35:15.560Z,44.40
2017-10-26T15:37:43.633Z,47.70
2017-10-26T15:40:11.716Z,39.30
2017-10-26T15:42:39.798Z,37.60
2017-10-26T15:45:07.881Z,39.53
2017-10-26T15:47:35.952Z,32.90
2017-10-26T15:50:04.040Z,38.53
2017-10-26T15:52:32.884Z,37.47
2017-10-26T15:55:00.963Z,39.47
2017-10-26T15:57:29.061Z,35.67
2017-10-26T15:59:57.143Z,36.60
2017-10-26T16:02:25.220Z,37.50
2017-10-26T16:04:54.059Z,49.30
2017-10-26T16:07:22.159Z,54.57
2017-10-26T16:09:50.247Z,56.27
2017-10-26T16:12:18.325Z,48.40
2017-10-26T16:14:47.240Z,43.13
2017-10-26T16:17:15.347Z,45.40
2017-10-26T16:19:43.456Z,40.17
2017-10-26T16:22:11.547Z,37.43
2017-10-26T16:24:40.394Z,36.13
2017-10-26T16:27:08.564Z,38.33
2017-10-26T16:29:36.661Z,39.03
2017-10-26T16:32:04.736Z,40.47
2017-10-26T16:34:32.826Z,40.83
2017-10-26T16:37:01.689Z,50.60
2017-10-26T16:39:29.784Z,46.40
2017-10-26T16:41:58.646Z,39.10
2017-10-26T16:44:26.735Z,45.30
2017-10-26T16:46:54.825Z,39.30
2017-10-26T16:49:23.714Z,38.27
2017-10-26T16:51:52.578Z,36.90
2017-10-26T16:54:20.670Z,41.60
2017-10-26T16:56:49.565Z,40.20
2017-10-26T16:59:18.429Z,37.73
2017-10-26T17:01:46.525Z,33.20
2017-10-26T17:04:15.388Z,33.73
2017-10-26T17:06:43.474Z,33.07
2017-10-26T17:09:11.577Z,37.90
2017-10-26T17:11:40.450Z,36.87
2017-10-26T17:14:08.539Z,31.50
2017-10-26T17:16:37.393Z,30.33
2017-10-26T17:19:05.544Z,32.10
2017-10-26T17:21:34.605Z,35.57
2017-10-26T17:24:03.473Z,35.50
2017-10-26T17:26:31.614Z,37.73
2017-10-26T17:28:59.722Z,57.17
2017-10-26T17:31:27.795Z,34.17
2017-10-26T17:33:55.893Z,36.40
2017-10-26T17:36:23.986Z,32.60
2017-10-26T17:38:52.085Z,31.33
2017-10-26T17:41:20.160Z,28.27
2017-10-26T17:43:48.253Z,37.27
2017-10-26T17:46:16.341Z,28.70
2017-10-26T17:48:45.202Z,28.70
2017-10-26T17:51:13.298Z,34.80
2017-10-26T17:53:42.195Z,34.60
2017-10-26T17:56:11.062Z,36.17
2017-10-26T17:58:39.157Z,36.70
2017-10-26T18:01:08.015Z,36.93
2017-10-26T18:03:36.093Z,38.97
2017-10-26T18:06:04.179Z,34.83
2017-10-26T18:08:32.321Z,40.77
2017-10-26T18:11:00.414Z,30.73
2017-10-26T18:13:28.500Z,44.53
2017-10-26T18:15:56.598Z,34.60
2017-10-26T18:18:24.692Z,35.60
2017-10-26T18:20:52.785Z,33.57
2017-10-26T18:23:20.868Z,40.13
2017-10-26T18:25:48.964Z,33.97
2017-10-26T18:28:17.047Z,30.90
2017-10-26T18:30:45.143Z,28.67
2017-10-26T18:33:13.232Z,29.13
2017-10-26T18:35:41.325Z,27.83
2017-10-26T18:38:09.413Z,26.93
2017-10-26T18:40:37.505Z,25.37
2017-10-26T18:43:05.597Z,25.10
2017-10-26T18:45:34.461Z,28.73
2017-10-26T18:48:02.552Z,27.10
2017-10-26T18:50:30.680Z,30.03
2017-10-26T18:52:58.786Z,28.20
2017-10-26T18:55:26.879Z,28.50
2017-10-26T18:57:55.748Z,30.63
2017-10-26T19:00:23.845Z,24.67
2017-10-26T19:02:52.709Z,27.80
2017-10-26T19:05:20.810Z,28.23
2017-10-26T19:07:49.668Z,34.00
2017-10-26T19:10:17.777Z,29.37
2017-10-26T19:12:46.649Z,28.73
2017-10-26T19:15:14.738Z,30.23
2017-10-26T19:17:43.593Z,40.40
2017-10-26T19:20:11.677Z,49.37
2017-10-26T19:22:39.764Z,39.63
2017-10-26T19:25:08.620Z,37.40
2017-10-26T19:27:36.715Z,34.17
2017-10-26T19:30:04.810Z,40.53
2017-10-26T19:32:33.661Z,40.43
2017-10-26T19:35:01.785Z,33.80
2017-10-26T19:37:29.860Z,35.07
2017-10-26T19:39:57.967Z,28.07
2017-10-26T19:42:26.059Z,34.20
2017-10-26T19:44:54.227Z,31.00
2017-10-26T19:47:22.297Z,32.90
2017-10-26T19:49:50.473Z,33.83
2017-10-26T19:52:18.551Z,31.40
2017-10-26T19:54:46.665Z,29.30
2017-10-26T19:57:15.510Z,32.23
2017-10-26T19:59:43.605Z,32.33
2017-10-26T20:02:12.480Z,32.47
2017-10-26T20:04:40.572Z,31.10
2017-10-26T20:07:08.644Z,28.53
2017-10-26T20:09:36.796Z,25.07
2017-10-26T20:12:04.936Z,25.23
2017-10-26T20:14:33.024Z,25.70
2017-10-26T20:17:01.876Z,24.70
2017-10-26T20:19:30.736Z,23.30
2017-10-26T20:21:58.820Z,27.57
2017-10-26T20:24:27.684Z,51.50
2017-10-26T20:26:55.780Z,32.83
2017-10-26T20:29:23.876Z,32.00
2017-10-26T20:31:52.753Z,29.90
2017-10-26T20:34:21.611Z,35.90
2017-10-26T20:36:49.713Z,30.73
2017-10-26T20:39:18.579Z,27.90
2017-10-26T20:41:47.308Z,28.43
2017-10-26T20:44:16.169Z,36.67
2017-10-26T20:46:44.259Z,41.73
2017-10-26T20:49:18.824Z,43.10
2017-10-26T20:51:52.592Z,37.10
2017-10-26T20:54:27.170Z,36.27
2017-10-26T20:57:00.772Z,38.37
2017-10-26T20:59:34.527Z,33.57
2017-10-26T21:05:22.639Z,38.90
2017-10-26T21:07:56.665Z,34.80
2017-10-26T21:10:30.323Z,35.13
2017-10-26T21:13:03.972Z,33.97
2017-10-26T21:15:32.074Z,32.53
2017-10-26T21:18:00.938Z,33.43
2017-10-26T21:20:29.032Z,27.03
2017-10-26T21:22:57.109Z,30.37
2017-10-26T21:25:25.235Z,35.70
2017-10-26T21:27:53.316Z,39.67
2017-10-26T21:30:21.414Z,60.30
2017-10-26T21:32:49.508Z,43.63
2017-10-26T21:35:18.744Z,31.07
2017-10-26T21:37:46.844Z,29.47
2017-10-26T21:40:14.943Z,30.13
2017-10-26T21:42:43.021Z,35.83
2017-10-26T21:45:11.867Z,29.80
2017-10-26T21:47:39.994Z,28.17
2017-10-26T21:50:08.839Z,28.90
2017-10-26T21:52:36.919Z,33.03
2017-10-26T21:55:05.043Z,28.87
2017-10-26T21:57:33.150Z,30.50
2017-10-26T22:00:01.236Z,31.00
2017-10-26T22:02:29.344Z,34.00
2017-10-26T22:04:58.202Z,30.23
2017-10-26T22:07:26.295Z,30.10
2017-10-26T22:09:54.390Z,35.40
2017-10-26T22:12:23.342Z,30.47
2017-10-26T22:14:52.169Z,34.07
2017-10-26T22:17:21.041Z,33.00
2017-10-26T22:19:49.160Z,28.33
2017-10-26T22:22:17.249Z,30.90
2017-10-26T22:24:45.346Z,31.33
2017-10-26T22:27:13.445Z,29.27
2017-10-26T22:29:42.312Z,27.93
2017-10-26T22:32:10.418Z,27.53
2017-10-26T22:34:39.282Z,31.27
2017-10-26T22:37:07.372Z,28.30
2017-10-26T22:39:36.225Z,28.73
2017-10-26T22:42:04.321Z,29.20
2017-10-26T22:44:32.399Z,29.87
2017-10-26T22:47:00.517Z,29.50
2017-10-26T22:49:28.606Z,28.50
2017-10-26T22:51:56.695Z,28.77
2017-10-26T22:54:24.792Z,36.57
2017-10-26T22:56:52.884Z,35.80
2017-10-26T22:59:21.733Z,38.70
2017-10-26T23:01:49.828Z,35.73
2017-10-26T23:04:17.916Z,33.03
2017-10-26T23:06:46.783Z,29.03
2017-10-26T23:09:14.868Z,27.10
2017-10-26T23:11:43.749Z,25.13
2017-10-26T23:14:11.841Z,28.93
2017-10-26T23:16:40.708Z,26.37
2017-10-26T23:19:08.807Z,31.13
2017-10-26T23:21:37.683Z,30.83
2017-10-26T23:24:05.763Z,30.40
2017-10-26T23:26:34.628Z,28.00
2017-10-26T23:29:02.721Z,26.77
2017-10-26T23:31:30.844Z,25.40
2017-10-26T23:33:58.927Z,29.70
2017-10-26T23:36:27.025Z,31.37
2017-10-26T23:38:55.121Z,31.20
2017-10-26T23:41:23.988Z,28.13
2017-10-26T23:43:52.085Z,33.40
2017-10-26T23:46:20.947Z,33.20
2017-10-26T23:48:49.033Z,27.67
2017-10-26T23:51:17.123Z,29.73
2017-10-26T23:53:45.977Z,28.23
2017-10-26T23:56:14.071Z,32.90
2017-10-26T23:58:42.220Z,28.80
